Time;durP1;ratioP1;P1;durP2;ratioP2;P2;SDS_P1;SDS_P2;PMS_P1;PMS_P2;Temp;Humidity;BMP_temperature;BMP_pressure;BME280_temperature;BME280_humidity;BME280_pressure;Samples;Min_cycle;Max_cycle;Signal;HPM_P1;HPM_P2
2021/05/29 00:00:48;;;;;;;1.30;0.88;;;;;;;;;;5054203;28;20214;-41
2021/05/29 00:03:14;;;;;;;1.00;0.93;;;;;;;;;;5053694;28;20206;-41
2021/05/29 00:05:40;;;;;;;0.75;0.75;;;;;;;;;;5054949;28;20249;-41
2021/05/29 00:08:07;;;;;;;0.75;0.75;;;;;;;;;;5043257;28;20461;-41
2021/05/29 00:10:33;;;;;;;1.02;0.82;;;;;;;;;;5038457;28;20218;-41
2021/05/29 00:13:00;;;;;;;0.70;0.70;;;;;;;;;;5050409;28;20199;-41
2021/05/29 00:15:26;;;;;;;0.80;0.80;;;;;;;;;;5038465;28;20242;-41
2021/05/29 00:17:52;;;;;;;0.90;0.70;;;;;;;;;;5054694;28;20562;-40
2021/05/29 00:20:18;;;;;;;1.13;0.60;;;;;;;;;;5054717;28;20195;-41
2021/05/29 00:22:44;;;;;;;1.58;0.90;;;;;;;;;;5052118;28;20574;-41
2021/05/29 00:25:10;;;;;;;0.80;0.80;;;;;;;;;;5042095;28;20489;-41
2021/05/29 00:27:36;;;;;;;0.85;0.85;;;;;;;;;;5040654;28;20194;-41
2021/05/29 00:30:03;;;;;;;0.65;0.65;;;;;;;;;;5054345;28;20183;-41
2021/05/29 00:32:29;;;;;;;0.75;0.75;;;;;;;;;;5053433;28;20175;-41
2021/05/29 00:34:55;;;;;;;0.98;0.75;;;;;;;;;;5036892;28;20257;-41
2021/05/29 00:37:21;;;;;;;0.85;0.85;;;;;;;;;;5051462;28;20186;-41
2021/05/29 00:39:48;;;;;;;0.80;0.80;;;;;;;;;;5054079;28;20305;-41
2021/05/29 00:42:14;;;;;;;0.70;0.70;;;;;;;;;;5045567;28;20179;-41
2021/05/29 00:44:47;;;;;;;0.77;0.77;;;;;;;;;;5054583;28;20174;-40
2021/05/29 00:47:13;;;;;;;0.70;0.70;;;;;;;;;;5053950;28;20580;-41
2021/05/29 00:49:39;;;;;;;0.75;0.75;;;;;;;;;;5051805;28;20266;-41
2021/05/29 00:52:05;;;;;;;0.70;0.70;;;;;;;;;;5045562;28;20578;-41
2021/05/29 00:54:31;;;;;;;1.00;0.93;;;;;;;;;;5038240;28;20172;-41
2021/05/29 00:56:57;;;;;;;0.75;0.73;;;;;;;;;;5038335;28;20199;-41
2021/05/29 00:59:23;;;;;;;0.70;0.70;;;;;;;;;;5041623;28;20178;-41
2021/05/29 01:01:49;;;;;;;0.70;0.70;;;;;;;;;;5056143;28;20561;-41
2021/05/29 01:04:15;;;;;;;0.60;0.60;;;;;;;;;;5057798;28;20186;-41
2021/05/29 01:06:41;;;;;;;0.82;0.80;;;;;;;;;;5044069;28;20298;-41
2021/05/29 01:09:07;;;;;;;0.70;0.70;;;;;;;;;;5038113;28;20184;-41
2021/05/29 01:11:33;;;;;;;1.73;0.80;;;;;;;;;;5042764;28;20175;-40
2021/05/29 01:14:01;;;;;;;0.85;0.80;;;;;;;;;;5056098;28;20241;-41
2021/05/29 01:16:42;;;;;;;2.10;0.82;;;;;;;;;;5038102;28;20242;-41
2021/05/29 01:19:10;;;;;;;0.90;0.90;;;;;;;;;;5042546;28;20175;-41
2021/05/29 01:21:36;;;;;;;0.80;0.80;;;;;;;;;;5056743;28;20566;-41
2021/05/29 01:24:02;;;;;;;1.05;0.90;;;;;;;;;;5057704;28;20179;-41
2021/05/29 01:26:29;;;;;;;0.65;0.63;;;;;;;;;;5039828;28;20234;-41
2021/05/29 01:28:56;;;;;;;0.70;0.70;;;;;;;;;;5037993;28;20179;-41
2021/05/29 01:31:26;;;;;;;2.92;0.80;;;;;;;;;;5040372;28;20176;-41
2021/05/29 01:33:56;;;;;;;0.70;0.70;;;;;;;;;;5054474;28;20183;-41
2021/05/29 01:36:22;;;;;;;0.82;0.82;;;;;;;;;;5049362;28;20184;-41
2021/05/29 01:38:49;;;;;;;0.80;0.80;;;;;;;;;;5037904;28;20171;-41
2021/05/29 01:41:16;;;;;;;0.77;0.77;;;;;;;;;;5050999;28;20266;-41
2021/05/29 01:43:44;;;;;;;0.70;0.70;;;;;;;;;;5057645;28;20176;-41
2021/05/29 01:46:10;;;;;;;0.75;0.75;;;;;;;;;;5056763;28;20615;-41
2021/05/29 01:48:46;;;;;;;0.70;0.70;;;;;;;;;;5054235;28;20274;-41
2021/05/29 01:51:14;;;;;;;0.88;0.52;;;;;;;;;;5052824;28;20179;-41
2021/05/29 01:53:40;;;;;;;1.00;0.73;;;;;;;;;;5057369;28;20550;-41
2021/05/29 01:56:06;;;;;;;0.70;0.70;;;;;;;;;;5054265;28;20198;-41
2021/05/29 01:58:33;;;;;;;0.60;0.60;;;;;;;;;;5056901;28;20181;-40
2021/05/29 02:00:59;;;;;;;0.55;0.55;;;;;;;;;;5056205;28;20171;-41
2021/05/29 02:03:25;;;;;;;0.70;0.70;;;;;;;;;;5041571;28;20246;-41
2021/05/29 02:05:51;;;;;;;0.70;0.70;;;;;;;;;;5055147;28;20639;-41
2021/05/29 02:08:17;;;;;;;0.80;0.80;;;;;;;;;;5045662;28;20187;-41
2021/05/29 02:10:44;;;;;;;0.70;0.68;;;;;;;;;;5055337;28;20182;-41
2021/05/29 02:13:11;;;;;;;0.77;0.77;;;;;;;;;;5056826;28;20175;-41
2021/05/29 02:15:41;;;;;;;0.60;0.60;;;;;;;;;;5054504;28;20251;-41
2021/05/29 02:18:08;;;;;;;0.52;0.52;;;;;;;;;;5044528;28;20462;-41
2021/05/29 02:20:40;;;;;;;0.80;0.80;;;;;;;;;;5054938;28;20577;-40
2021/05/29 02:23:07;;;;;;;0.85;0.85;;;;;;;;;;5036972;28;20210;-41
2021/05/29 02:25:33;;;;;;;0.80;0.80;;;;;;;;;;5036764;28;20188;-41
2021/05/29 02:27:59;;;;;;;0.80;0.80;;;;;;;;;;5051849;28;20179;-41
2021/05/29 02:30:26;;;;;;;0.70;0.70;;;;;;;;;;5037779;28;20180;-41
2021/05/29 02:32:52;;;;;;;0.63;0.63;;;;;;;;;;5054379;28;20252;-41
2021/05/29 02:35:18;;;;;;;0.80;0.80;;;;;;;;;;5038129;28;20183;-41
2021/05/29 02:37:44;;;;;;;0.60;0.60;;;;;;;;;;5045485;28;20723;-40
2021/05/29 02:40:11;;;;;;;0.50;0.50;;;;;;;;;;5056710;28;20218;-41
2021/05/29 02:42:37;;;;;;;0.93;0.80;;;;;;;;;;5055327;28;20180;-41
2021/05/29 02:45:04;;;;;;;0.70;0.70;;;;;;;;;;5051774;28;20187;-41
2021/05/29 02:47:30;;;;;;;0.57;0.55;;;;;;;;;;5052742;28;20254;-41
2021/05/29 02:49:56;;;;;;;0.70;0.70;;;;;;;;;;5037710;28;20187;-40
2021/05/29 02:52:22;;;;;;;0.70;0.70;;;;;;;;;;5051316;28;20187;-41
2021/05/29 02:54:48;;;;;;;0.70;0.70;;;;;;;;;;5055998;28;20270;-41
2021/05/29 02:57:14;;;;;;;0.93;0.93;;;;;;;;;;5055242;28;20175;-41
2021/05/29 02:59:41;;;;;;;0.50;0.50;;;;;;;;;;5043549;28;20193;-41
2021/05/29 03:02:08;;;;;;;0.60;0.60;;;;;;;;;;5052278;28;20557;-41
2021/05/29 03:04:34;;;;;;;0.50;0.50;;;;;;;;;;5055544;28;20187;-41
2021/05/29 03:07:00;;;;;;;0.80;0.80;;;;;;;;;;5055695;28;20215;-41
2021/05/29 03:09:27;;;;;;;0.55;0.55;;;;;;;;;;5055077;28;20187;-41
2021/05/29 03:11:54;;;;;;;0.60;0.60;;;;;;;;;;5055593;28;20160;-41
2021/05/29 03:14:20;;;;;;;0.70;0.70;;;;;;;;;;5053922;28;20189;-41
2021/05/29 03:16:46;;;;;;;0.60;0.60;;;;;;;;;;5037910;28;20290;-41
2021/05/29 03:19:12;;;;;;;0.52;0.52;;;;;;;;;;5041263;28;20198;-41
2021/05/29 03:21:38;;;;;;;0.68;0.60;;;;;;;;;;5035154;28;20599;-40
2021/05/29 03:24:04;;;;;;;0.63;0.63;;;;;;;;;;5052220;28;20186;-41
2021/05/29 03:26:30;;;;;;;0.70;0.70;;;;;;;;;;5047859;28;20192;-40
2021/05/29 03:28:56;;;;;;;0.60;0.52;;;;;;;;;;5054548;28;20225;-41
2021/05/29 03:31:22;;;;;;;0.80;0.80;;;;;;;;;;5046781;28;20204;-41
2021/05/29 03:33:48;;;;;;;0.70;0.70;;;;;;;;;;5041089;28;20179;-41
2021/05/29 03:36:14;;;;;;;0.40;0.40;;;;;;;;;;5053651;28;20182;-41
2021/05/29 03:38:41;;;;;;;0.57;0.57;;;;;;;;;;5053316;28;20182;-40
2021/05/29 03:41:07;;;;;;;0.50;0.50;;;;;;;;;;5048701;28;20232;-41
2021/05/29 03:43:33;;;;;;;1.00;0.80;;;;;;;;;;5042832;28;20211;-41
2021/05/29 03:45:59;;;;;;;0.63;0.63;;;;;;;;;;5035225;28;20199;-40
2021/05/29 03:48:25;;;;;;;0.73;0.73;;;;;;;;;;5043897;28;20183;-41
2021/05/29 03:50:51;;;;;;;0.60;0.60;;;;;;;;;;5037978;28;20254;-41
2021/05/29 03:53:17;;;;;;;0.60;0.60;;;;;;;;;;5054624;28;20246;-41
2021/05/29 03:55:43;;;;;;;0.93;0.63;;;;;;;;;;5054535;28;20255;-41
2021/05/29 03:58:09;;;;;;;0.50;0.50;;;;;;;;;;5054128;28;20280;-41
2021/05/29 04:00:35;;;;;;;0.50;0.50;;;;;;;;;;5044593;28;20194;-40
2021/05/29 04:03:01;;;;;;;0.70;0.70;;;;;;;;;;5054380;28;20179;-41
2021/05/29 04:05:27;;;;;;;0.60;0.60;;;;;;;;;;5054390;28;20198;-40
2021/05/29 04:07:54;;;;;;;0.50;0.50;;;;;;;;;;5052414;28;20179;-40
2021/05/29 04:10:22;;;;;;;0.55;0.55;;;;;;;;;;5054731;28;20254;-41
2021/05/29 04:12:48;;;;;;;0.60;0.60;;;;;;;;;;5053883;28;20175;-40
2021/05/29 04:15:14;;;;;;;0.60;0.60;;;;;;;;;;5054561;28;20746;-41
2021/05/29 04:17:41;;;;;;;0.30;0.30;;;;;;;;;;5052596;28;20365;-40
2021/05/29 04:20:08;;;;;;;0.60;0.60;;;;;;;;;;5054828;28;20178;-41
2021/05/29 04:22:34;;;;;;;0.50;0.50;;;;;;;;;;5048787;28;20171;-41
2021/05/29 04:25:00;;;;;;;0.70;0.70;;;;;;;;;;5054344;28;20474;-41
2021/05/29 04:27:26;;;;;;;0.68;0.68;;;;;;;;;;5053818;28;20171;-40
2021/05/29 04:29:54;;;;;;;0.52;0.52;;;;;;;;;;5039773;28;20764;-41
2021/05/29 04:32:20;;;;;;;0.63;0.63;;;;;;;;;;5053641;28;20495;-41
2021/05/29 04:34:46;;;;;;;0.60;0.60;;;;;;;;;;5039788;28;20202;-41
2021/05/29 04:37:15;;;;;;;0.60;0.60;;;;;;;;;;5054504;28;20197;-41
2021/05/29 04:39:41;;;;;;;0.60;0.60;;;;;;;;;;5040566;28;20543;-41
2021/05/29 04:42:07;;;;;;;0.55;0.55;;;;;;;;;;5034331;28;20178;-40
2021/05/29 04:44:33;;;;;;;0.60;0.60;;;;;;;;;;5046473;28;20198;-41
2021/05/29 04:47:01;;;;;;;0.65;0.65;;;;;;;;;;5043060;28;20233;-40
2021/05/29 04:49:28;;;;;;;0.73;0.63;;;;;;;;;;5040854;28;20171;-41
2021/05/29 04:51:54;;;;;;;0.47;0.47;;;;;;;;;;5033974;28;20438;-41
2021/05/29 04:54:20;;;;;;;0.50;0.50;;;;;;;;;;5046469;28;20182;-41
2021/05/29 04:56:46;;;;;;;0.40;0.40;;;;;;;;;;5054180;28;20202;-41
2021/05/29 04:59:12;;;;;;;0.50;0.50;;;;;;;;;;5043529;28;20179;-41
2021/05/29 05:01:38;;;;;;;0.60;0.60;;;;;;;;;;5047874;28;20546;-41
2021/05/29 05:04:05;;;;;;;0.60;0.60;;;;;;;;;;5049584;28;20238;-41
2021/05/29 05:06:31;;;;;;;0.68;0.60;;;;;;;;;;5050653;28;20205;-41
2021/05/29 05:08:57;;;;;;;0.63;0.63;;;;;;;;;;5052911;28;20258;-41
2021/05/29 05:11:24;;;;;;;0.70;0.70;;;;;;;;;;5050369;28;20184;-41
2021/05/29 05:13:50;;;;;;;0.75;0.75;;;;;;;;;;5053810;28;20179;-41
2021/05/29 05:16:17;;;;;;;1.60;0.70;;;;;;;;;;5053318;28;20206;-41
2021/05/29 05:18:43;;;;;;;0.70;0.70;;;;;;;;;;5039725;28;20195;-40
2021/05/29 05:21:10;;;;;;;0.55;0.55;;;;;;;;;;5053380;28;20187;-41
2021/05/29 05:23:36;;;;;;;1.48;0.82;;;;;;;;;;5053737;28;20213;-40
2021/05/29 05:26:02;;;;;;;0.70;0.70;;;;;;;;;;5048729;28;20235;-41
2021/05/29 05:28:29;;;;;;;0.70;0.70;;;;;;;;;;5050428;28;20581;-41
2021/05/29 05:30:58;;;;;;;1.10;1.00;;;;;;;;;;5048611;28;20171;-41
2021/05/29 05:33:25;;;;;;;0.70;0.70;;;;;;;;;;5054033;28;20186;-40
2021/05/29 05:35:51;;;;;;;1.75;1.02;;;;;;;;;;5052384;28;20259;-41
2021/05/29 05:38:18;;;;;;;0.80;0.80;;;;;;;;;;5052430;28;20194;-41
2021/05/29 05:40:44;;;;;;;3.30;1.35;;;;;;;;;;5054100;28;20179;-41
2021/05/29 05:43:10;;;;;;;85.45;18.88;;;;;;;;;;5042065;28;20489;-41
2021/05/29 05:45:36;;;;;;;98.82;21.98;;;;;;;;;;5049743;28;20590;-41
2021/05/29 05:48:02;;;;;;;78.00;19.27;;;;;;;;;;5053733;28;20259;-41
2021/05/29 05:50:29;;;;;;;55.92;14.68;;;;;;;;;;5055176;28;20203;-41
2021/05/29 05:52:55;;;;;;;46.50;12.27;;;;;;;;;;5057819;28;20163;-41
2021/05/29 05:55:21;;;;;;;39.33;10.25;;;;;;;;;;5057542;28;20176;-40
2021/05/29 05:57:47;;;;;;;39.50;10.70;;;;;;;;;;5047692;28;20191;-40
2021/05/29 06:00:14;;;;;;;39.97;11.00;;;;;;;;;;5057413;28;20187;-41
2021/05/29 06:02:42;;;;;;;33.60;9.20;;;;;;;;;;5053970;28;20253;-41
2021/05/29 06:05:08;;;;;;;37.13;10.25;;;;;;;;;;5054556;28;20190;-40
2021/05/29 06:07:34;;;;;;;32.15;8.93;;;;;;;;;;5048033;28;20187;-41
2021/05/29 06:10:00;;;;;;;34.20;8.93;;;;;;;;;;5057326;28;20282;-41
2021/05/29 06:12:26;;;;;;;29.83;9.18;;;;;;;;;;5055286;28;20179;-41
2021/05/29 06:20:49;;;;;;;31.95;10.77;;;;;;;;;;5014510;28;20224;-41
2021/05/29 06:23:16;;;;;;;29.75;9.95;;;;;;;;;;5009987;28;20674;-41
2021/05/29 06:25:42;;;;;;;26.98;8.27;;;;;;;;;;5023539;28;20224;-41
2021/05/29 06:28:08;;;;;;;27.85;8.63;;;;;;;;;;5037137;28;20180;-41
2021/05/29 06:30:35;;;;;;;32.92;8.88;;;;;;;;;;5047657;28;20247;-41
2021/05/29 06:33:01;;;;;;;23.77;8.93;;;;;;;;;;5055924;28;20183;-41
2021/05/29 06:35:27;;;;;;;25.75;8.82;;;;;;;;;;5056382;28;20194;-41
2021/05/29 06:37:53;;;;;;;24.38;7.82;;;;;;;;;;5054093;28;20198;-41
2021/05/29 06:40:19;;;;;;;31.15;9.05;;;;;;;;;;5045035;28;20470;-41
2021/05/29 06:42:45;;;;;;;36.75;9.73;;;;;;;;;;5042028;28;20191;-41
2021/05/29 06:45:12;;;;;;;41.40;10.38;;;;;;;;;;5056542;28;20171;-41
2021/05/29 06:47:39;;;;;;;45.75;11.77;;;;;;;;;;5054321;28;20187;-41
2021/05/29 06:50:06;;;;;;;38.45;11.15;;;;;;;;;;5050922;28;20354;-41
2021/05/29 06:52:33;;;;;;;33.20;10.27;;;;;;;;;;5047572;28;20168;-41
2021/05/29 06:58:40;;;;;;;33.80;10.95;;;;;;;;;;5054653;28;20174;-41
2021/05/29 07:00:33;;;;;;;31.35;9.77;;;;;;;;;;5050108;28;20266;-41
2021/05/29 07:02:59;;;;;;;30.05;9.82;;;;;;;;;;5056144;28;20179;-41
2021/05/29 07:05:26;;;;;;;32.92;9.98;;;;;;;;;;5056064;28;20201;-41
2021/05/29 07:07:52;;;;;;;26.95;9.13;;;;;;;;;;5055857;28;20195;-41
2021/05/29 07:10:17;;;;;;;20.80;8.18;;;;;;;;;;5056370;28;20170;-41
2021/05/29 07:12:43;;;;;;;28.60;9.05;;;;;;;;;;5055184;28;20204;-41
2021/05/29 07:15:10;;;;;;;24.27;8.77;;;;;;;;;;5054573;28;20199;-41
2021/05/29 07:17:40;;;;;;;28.25;8.68;;;;;;;;;;5056050;28;20557;-41
2021/05/29 07:20:07;;;;;;;25.70;8.65;;;;;;;;;;5055844;28;20618;-41
2021/05/29 07:22:34;;;;;;;19.63;7.57;;;;;;;;;;5055339;28;20175;-42
2021/05/29 07:25:00;;;;;;;19.58;7.35;;;;;;;;;;5052959;28;20182;-42
2021/05/29 07:27:26;;;;;;;19.48;7.25;;;;;;;;;;5035560;28;20207;-42
2021/05/29 07:29:52;;;;;;;19.05;6.88;;;;;;;;;;5055235;28;20855;-42
2021/05/29 07:32:18;;;;;;;17.95;7.35;;;;;;;;;;5055179;28;20257;-42
2021/05/29 07:34:44;;;;;;;18.25;6.55;;;;;;;;;;5055295;28;20163;-42
2021/05/29 07:37:10;;;;;;;19.67;6.80;;;;;;;;;;5055617;28;20167;-42
2021/05/29 07:39:36;;;;;;;16.23;6.07;;;;;;;;;;5049270;28;20183;-41
2021/05/29 07:42:02;;;;;;;19.27;6.55;;;;;;;;;;5038521;28;20187;-42
2021/05/29 07:44:28;;;;;;;15.65;5.80;;;;;;;;;;5054996;28;20171;-42
2021/05/29 07:46:55;;;;;;;16.33;5.82;;;;;;;;;;5054990;28;20238;-42
2021/05/29 07:49:21;;;;;;;15.88;5.40;;;;;;;;;;5041074;28;20293;-42
2021/05/29 07:51:47;;;;;;;13.00;5.30;;;;;;;;;;5034697;28;20175;-42
2021/05/29 07:54:14;;;;;;;14.60;5.20;;;;;;;;;;5036799;28;20179;-42
2021/05/29 07:56:40;;;;;;;12.32;5.05;;;;;;;;;;5055228;28;20211;-42
2021/05/29 07:59:10;;;;;;;13.88;5.15;;;;;;;;;;5045534;28;20240;-42
2021/05/29 08:01:36;;;;;;;11.85;5.15;;;;;;;;;;5053937;28;20175;-42
2021/05/29 08:04:02;;;;;;;12.23;5.35;;;;;;;;;;5054877;28;20258;-42
2021/05/29 08:06:29;;;;;;;14.15;4.55;;;;;;;;;;5054929;28;20270;-42
2021/05/29 08:08:54;;;;;;;10.27;4.47;;;;;;;;;;5055055;28;20185;-42
2021/05/29 08:11:22;;;;;;;14.40;5.13;;;;;;;;;;5053273;28;20178;-42
2021/05/29 08:13:49;;;;;;;10.77;5.07;;;;;;;;;;5054968;28;20401;-42
2021/05/29 08:16:15;;;;;;;12.63;4.32;;;;;;;;;;5054676;28;20175;-42
2021/05/29 08:18:42;;;;;;;8.48;4.20;;;;;;;;;;5054742;28;20210;-42
2021/05/29 08:21:08;;;;;;;10.98;4.93;;;;;;;;;;5054357;28;20175;-42
2021/05/29 08:23:34;;;;;;;8.55;4.53;;;;;;;;;;5054572;28;20202;-42
2021/05/29 08:26:00;;;;;;;11.25;4.80;;;;;;;;;;5054680;28;20248;-42
2021/05/29 08:28:26;;;;;;;10.93;4.68;;;;;;;;;;5038052;28;20183;-42
2021/05/29 08:30:52;;;;;;;7.10;4.13;;;;;;;;;;5053855;28;20175;-42
2021/05/29 08:33:18;;;;;;;8.98;4.78;;;;;;;;;;5054436;28;20163;-42
2021/05/29 08:35:44;;;;;;;9.10;4.03;;;;;;;;;;5054282;28;20218;-42
2021/05/29 08:38:10;;;;;;;7.78;4.13;;;;;;;;;;5054604;28;20186;-42
2021/05/29 08:40:36;;;;;;;6.75;3.67;;;;;;;;;;5054030;28;20829;-42
2021/05/29 08:43:02;;;;;;;10.10;4.57;;;;;;;;;;5052645;28;20463;-42
2021/05/29 08:45:28;;;;;;;10.80;4.47;;;;;;;;;;5053641;28;20260;-42
2021/05/29 08:47:54;;;;;;;9.55;4.60;;;;;;;;;;5051891;28;20265;-42
2021/05/29 08:50:21;;;;;;;10.48;4.18;;;;;;;;;;5034431;28;20544;-42
2021/05/29 08:52:48;;;;;;;8.75;3.95;;;;;;;;;;5034319;28;20164;-42
2021/05/29 08:55:15;;;;;;;6.45;3.65;;;;;;;;;;5034300;28;20538;-42
2021/05/29 08:57:43;;;;;;;8.57;3.70;;;;;;;;;;5034367;28;20214;-42
2021/05/29 09:00:10;;;;;;;6.60;3.65;;;;;;;;;;5049241;28;20175;-42
2021/05/29 09:02:55;;;;;;;7.78;3.85;;;;;;;;;;5053925;28;20254;-42
2021/05/29 09:05:32;;;;;;;8.68;4.07;;;;;;;;;;5054281;28;20178;-42
2021/05/29 09:08:02;;;;;;;7.40;3.40;;;;;;;;;;5042932;28;20318;-42
2021/05/29 09:10:28;;;;;;;5.80;3.53;;;;;;;;;;5034168;28;20246;-42
2021/05/29 09:13:07;;;;;;;7.47;4.00;;;;;;;;;;5054018;28;20190;-42
2021/05/29 09:15:59;;;;;;;5.55;3.30;;;;;;;;;;5056923;28;20607;-42
2021/05/29 09:18:27;;;;;;;8.20;3.70;;;;;;;;;;5053801;28;20198;-42
2021/05/29 09:20:53;;;;;;;3.83;2.97;;;;;;;;;;5057223;28;20182;-42
2021/05/29 09:23:19;;;;;;;7.07;3.85;;;;;;;;;;5057825;28;20211;-42
2021/05/29 09:25:53;;;;;;;6.53;3.42;;;;;;;;;;5057824;28;20230;-42
2021/05/29 09:28:25;;;;;;;5.38;3.35;;;;;;;;;;5057940;28;20194;-42
2021/05/29 09:30:52;;;;;;;6.25;3.15;;;;;;;;;;5050658;28;20261;-42
2021/05/29 09:33:22;;;;;;;4.25;3.13;;;;;;;;;;5039222;28;20172;-42
2021/05/29 09:36:02;;;;;;;7.28;3.95;;;;;;;;;;5050589;28;20572;-42
2021/05/29 09:38:41;;;;;;;4.85;2.90;;;;;;;;;;5057633;28;20443;-42
2021/05/29 09:41:32;;;;;;;5.97;3.33;;;;;;;;;;5057280;28;20178;-42
2021/05/29 09:44:06;;;;;;;7.32;3.25;;;;;;;;;;5057472;28;20258;-42
2021/05/29 09:46:52;;;;;;;5.68;3.38;;;;;;;;;;5055572;28;20286;-42
2021/05/29 09:49:18;;;;;;;5.00;3.38;;;;;;;;;;5043586;28;20211;-42
2021/05/29 09:51:44;;;;;;;5.80;3.50;;;;;;;;;;5056565;28;20218;-42
2021/05/29 09:54:11;;;;;;;5.55;2.97;;;;;;;;;;5057200;28;20218;-42
2021/05/29 09:56:42;;;;;;;4.50;2.97;;;;;;;;;;5057032;28;20214;-42
2021/05/29 09:59:09;;;;;;;8.43;3.40;;;;;;;;;;5057256;28;20190;-42
2021/05/29 10:01:41;;;;;;;5.40;3.17;;;;;;;;;;5056862;28;20167;-42
2021/05/29 10:04:07;;;;;;;6.00;2.85;;;;;;;;;;5055751;28;20274;-42
2021/05/29 10:06:33;;;;;;;3.92;3.05;;;;;;;;;;5057059;28;20594;-42
2021/05/29 10:08:59;;;;;;;4.00;3.10;;;;;;;;;;5056890;28;20217;-42
2021/05/29 10:11:27;;;;;;;4.45;2.50;;;;;;;;;;5056165;28;20203;-42
2021/05/29 10:13:53;;;;;;;3.95;2.80;;;;;;;;;;5057185;28;20338;-42
2021/05/29 10:16:20;;;;;;;5.18;2.88;;;;;;;;;;5057115;28;20218;-42
2021/05/29 10:18:50;;;;;;;3.97;2.58;;;;;;;;;;5057238;28;20198;-42
2021/05/29 10:21:17;;;;;;;3.83;2.80;;;;;;;;;;5053441;28;20244;-42
2021/05/29 10:23:45;;;;;;;3.63;2.38;;;;;;;;;;5057014;28;20199;-42
2021/05/29 10:26:12;;;;;;;3.22;2.60;;;;;;;;;;5056377;28;20289;-42
2021/05/29 10:28:39;;;;;;;4.63;2.65;;;;;;;;;;5056302;28;20175;-42
2021/05/29 10:31:06;;;;;;;3.42;2.75;;;;;;;;;;5056435;28;20163;-42
2021/05/29 10:33:39;;;;;;;4.28;3.03;;;;;;;;;;5053208;28;20225;-42
2021/05/29 10:36:06;;;;;;;3.33;2.80;;;;;;;;;;5037852;28;20193;-42
2021/05/29 10:38:42;;;;;;;3.60;2.80;;;;;;;;;;5043127;28;20178;-42
2021/05/29 10:41:08;;;;;;;3.13;2.83;;;;;;;;;;5055912;28;20171;-42
2021/05/29 10:43:36;;;;;;;5.95;2.85;;;;;;;;;;5056333;28;20160;-42
2021/05/29 10:46:06;;;;;;;4.72;2.90;;;;;;;;;;5056598;28;20222;-42
2021/05/29 10:48:42;;;;;;;4.05;2.53;;;;;;;;;;5048902;28;20172;-42
2021/05/29 10:51:12;;;;;;;4.05;2.80;;;;;;;;;;5046263;28;20186;-42
2021/05/29 10:53:47;;;;;;;3.25;2.70;;;;;;;;;;5039496;28;20206;-42
2021/05/29 10:56:22;;;;;;;3.28;2.53;;;;;;;;;;5050001;28;20261;-42
2021/05/29 10:59:07;;;;;;;3.60;2.67;;;;;;;;;;5056006;28;20265;-42
2021/05/29 11:01:35;;;;;;;3.20;2.60;;;;;;;;;;5055471;28;20205;-42
2021/05/29 11:04:13;;;;;;;3.17;2.45;;;;;;;;;;5055902;28;20308;-42
2021/05/29 11:06:41;;;;;;;4.40;3.00;;;;;;;;;;5055720;28;20187;-42
2021/05/29 11:09:08;;;;;;;3.95;2.53;;;;;;;;;;5054156;28;20163;-42
2021/05/29 11:11:57;;;;;;;3.42;2.58;;;;;;;;;;5055379;28;20179;-42
2021/05/29 11:14:26;;;;;;;2.83;2.50;;;;;;;;;;5055037;28;20266;-42
2021/05/29 11:16:56;;;;;;;2.72;2.35;;;;;;;;;;5055933;28;20207;-42
2021/05/29 11:19:35;;;;;;;3.83;2.50;;;;;;;;;;5055958;28;20171;-42
2021/05/29 11:22:17;;;;;;;2.60;2.20;;;;;;;;;;5055457;28;20494;-42
2021/05/29 11:24:49;;;;;;;2.47;2.03;;;;;;;;;;5048913;28;20465;-42
2021/05/29 11:27:16;;;;;;;4.13;2.70;;;;;;;;;;5045474;28;20206;-42
2021/05/29 11:29:51;;;;;;;2.83;2.08;;;;;;;;;;5055703;28;20576;-42
2021/05/29 11:35:30;;;;;;;3.55;2.20;;;;;;;;;;5023198;28;20266;-42
2021/05/29 11:38:17;;;;;;;3.45;2.20;;;;;;;;;;5053565;28;20209;-42
2021/05/29 11:40:43;;;;;;;2.88;2.45;;;;;;;;;;5046586;28;20446;-42
2021/05/29 11:43:10;;;;;;;2.50;2.28;;;;;;;;;;5035296;28;20247;-42
2021/05/29 11:45:36;;;;;;;2.83;2.28;;;;;;;;;;5034965;28;20198;-42
2021/05/29 11:48:02;;;;;;;2.95;2.42;;;;;;;;;;5046340;28;20179;-42
2021/05/29 11:50:28;;;;;;;2.67;2.20;;;;;;;;;;5049824;28;20294;-42
2021/05/29 11:52:54;;;;;;;2.80;2.05;;;;;;;;;;5053612;28;20207;-42
2021/05/29 11:55:21;;;;;;;3.40;2.50;;;;;;;;;;5055295;28;20242;-42
2021/05/29 11:58:00;;;;;;;2.22;1.98;;;;;;;;;;5040001;28;20230;-42
2021/05/29 12:00:27;;;;;;;2.22;2.03;;;;;;;;;;5051623;28;20269;-42
2021/05/29 12:02:53;;;;;;;2.70;2.20;;;;;;;;;;5055136;28;20179;-42
2021/05/29 12:05:20;;;;;;;2.75;2.20;;;;;;;;;;5055037;28;20592;-42
2021/05/29 12:07:59;;;;;;;2.75;2.05;;;;;;;;;;5054921;28;20171;-42
2021/05/29 12:10:25;;;;;;;3.60;2.15;;;;;;;;;;5055058;28;21082;-42
2021/05/29 12:12:54;;;;;;;2.97;2.00;;;;;;;;;;5050416;28;20624;-42
2021/05/29 12:15:22;;;;;;;2.60;2.00;;;;;;;;;;5034954;28;20602;-42
2021/05/29 12:17:48;;;;;;;2.92;2.17;;;;;;;;;;5034758;28;20176;-42
2021/05/29 12:20:14;;;;;;;2.53;2.00;;;;;;;;;;5034879;28;20168;-42
2021/05/29 12:22:40;;;;;;;2.08;1.77;;;;;;;;;;5034248;28;20190;-42
2021/05/29 12:25:11;;;;;;;2.58;2.05;;;;;;;;;;5043986;28;20441;-42
2021/05/29 12:27:42;;;;;;;2.30;2.10;;;;;;;;;;5054913;28;20191;-42
2021/05/29 12:30:09;;;;;;;1.95;1.80;;;;;;;;;;5043389;28;20191;-42
2021/05/29 12:32:40;;;;;;;3.47;2.00;;;;;;;;;;5048910;28;20170;-42
2021/05/29 12:35:11;;;;;;;2.65;1.80;;;;;;;;;;5049702;28;20215;-42
2021/05/29 12:37:38;;;;;;;2.38;2.05;;;;;;;;;;5041609;28;20270;-42
2021/05/29 12:40:10;;;;;;;3.40;2.10;;;;;;;;;;5054102;28;20187;-42
2021/05/29 12:42:42;;;;;;;4.22;2.00;;;;;;;;;;5053993;28;20561;-42
2021/05/29 12:45:18;;;;;;;4.10;2.17;;;;;;;;;;5052447;28;20735;-42
2021/05/29 12:47:57;;;;;;;2.97;2.10;;;;;;;;;;5055432;28;20183;-42
2021/05/29 12:50:27;;;;;;;2.33;2.00;;;;;;;;;;5060612;28;20221;-42
2021/05/29 12:53:06;;;;;;;2.35;2.00;;;;;;;;;;5060917;28;20167;-42
2021/05/29 12:55:32;;;;;;;2.22;1.83;;;;;;;;;;5059476;28;20206;-42
2021/05/29 12:57:58;;;;;;;2.60;1.95;;;;;;;;;;5052259;28;20218;-43
2021/05/29 13:00:58;;;;;;;2.08;1.85;;;;;;;;;;5059894;28;20454;-42
2021/05/29 13:09:22;;;;;;;2.63;2.03;;;;;;;;;;5041402;28;20266;-42
2021/05/29 13:11:48;;;;;;;4.57;1.88;;;;;;;;;;5040636;28;20164;-42
2021/05/29 13:14:19;;;;;;;2.78;1.92;;;;;;;;;;5040799;28;20167;-42
2021/05/29 13:16:52;;;;;;;4.43;2.42;;;;;;;;;;5041080;28;20191;-42
2021/05/29 13:19:20;;;;;;;2.05;1.92;;;;;;;;;;5042127;28;20225;-42
2021/05/29 13:22:12;;;;;;;3.28;2.00;;;;;;;;;;5046896;28;20182;-42
2021/05/29 13:24:59;;;;;;;2.25;1.80;;;;;;;;;;5057937;28;20191;-42
2021/05/29 13:27:34;;;;;;;2.20;1.65;;;;;;;;;;5060438;28;20211;-42
2021/05/29 13:30:13;;;;;;;1.95;1.70;;;;;;;;;;5061053;28;20181;-42
2021/05/29 13:32:39;;;;;;;4.55;1.85;;;;;;;;;;5059984;28;20163;-42
2021/05/29 13:35:06;;;;;;;2.67;1.73;;;;;;;;;;5051590;28;20176;-42
2021/05/29 13:37:32;;;;;;;2.60;1.60;;;;;;;;;;5051075;28;20294;-42
2021/05/29 13:39:58;;;;;;;2.70;1.80;;;;;;;;;;5060974;28;20533;-42
2021/05/29 13:42:24;;;;;;;1.77;1.42;;;;;;;;;;5060575;28;20246;-42
2021/05/29 13:44:50;;;;;;;2.40;1.70;;;;;;;;;;5060679;28;20437;-42
2021/05/29 13:47:17;;;;;;;2.00;1.75;;;;;;;;;;5060950;28;20206;-42
2021/05/29 13:49:44;;;;;;;2.85;1.92;;;;;;;;;;5060617;28;20194;-42
2021/05/29 13:52:10;;;;;;;3.03;2.33;;;;;;;;;;5055664;28;20167;-42
2021/05/29 13:54:37;;;;;;;3.22;1.63;;;;;;;;;;5059610;28;20237;-42
2021/05/29 13:57:03;;;;;;;3.70;1.88;;;;;;;;;;5055668;28;20213;-42
2021/05/29 13:59:30;;;;;;;2.67;1.80;;;;;;;;;;5041143;28;20179;-42
2021/05/29 14:01:56;;;;;;;1.55;1.40;;;;;;;;;;5056946;28;20167;-42
2021/05/29 14:04:22;;;;;;;2.25;1.50;;;;;;;;;;5056928;28;20185;-42
2021/05/29 14:06:48;;;;;;;2.00;1.63;;;;;;;;;;5054693;28;20283;-42
2021/05/29 14:09:14;;;;;;;1.88;1.70;;;;;;;;;;5040179;28;20222;-42
2021/05/29 14:11:43;;;;;;;3.60;1.75;;;;;;;;;;5037449;28;20191;-43
2021/05/29 14:14:10;;;;;;;2.80;1.50;;;;;;;;;;5037331;28;20164;-42
2021/05/29 14:16:36;;;;;;;2.30;1.55;;;;;;;;;;5044270;28;20222;-42
2021/05/29 14:19:03;;;;;;;1.75;1.65;;;;;;;;;;5057154;28;20545;-42
2021/05/29 14:21:29;;;;;;;2.15;1.65;;;;;;;;;;5056277;28;20221;-42
2021/05/29 14:23:56;;;;;;;3.03;1.60;;;;;;;;;;5047758;28;20452;-42
2021/05/29 14:26:24;;;;;;;1.50;1.40;;;;;;;;;;5040005;28;20191;-42
2021/05/29 14:28:50;;;;;;;1.60;1.40;;;;;;;;;;5056956;28;20163;-42
2021/05/29 14:31:17;;;;;;;2.90;1.65;;;;;;;;;;5054848;28;20202;-42
2021/05/29 14:33:43;;;;;;;1.67;1.58;;;;;;;;;;5043768;28;20175;-42
2021/05/29 14:36:09;;;;;;;1.80;1.50;;;;;;;;;;5056763;28;20209;-42
2021/05/29 14:38:36;;;;;;;1.50;1.40;;;;;;;;;;5057015;28;20182;-42
2021/05/29 14:41:02;;;;;;;1.52;1.42;;;;;;;;;;5055759;28;20499;-42
2021/05/29 14:43:28;;;;;;;1.63;1.52;;;;;;;;;;5056615;28;20225;-42
2021/05/29 14:45:54;;;;;;;2.15;1.40;;;;;;;;;;5055740;28;20203;-42
2021/05/29 14:48:20;;;;;;;1.75;1.52;;;;;;;;;;5050975;28;20536;-42
2021/05/29 14:50:50;;;;;;;1.60;1.50;;;;;;;;;;5036126;28;20251;-42
2021/05/29 14:53:19;;;;;;;1.42;1.33;;;;;;;;;;5036577;28;20160;-42
2021/05/29 14:55:46;;;;;;;1.70;1.42;;;;;;;;;;5040081;28;20180;-42
2021/05/29 14:58:12;;;;;;;1.63;1.30;;;;;;;;;;5056046;28;20187;-42
2021/05/29 15:00:38;;;;;;;1.60;1.50;;;;;;;;;;5055749;28;20265;-42
2021/05/29 15:03:06;;;;;;;1.90;1.60;;;;;;;;;;5056633;28;20486;-42